.
WxDataArchive / Data Records for 2011-06-23
2011-06-22 June 2011 2011-06-24

Data Records for Thursday, 23 June 2011

Time	Temp	Chill	HIndex	Humid	Dewpt	 Wind 	HiWind	WindDir	Rain 	Barom 
-----	----	-----	------	-----	-----	------	------	-------	-----	----- 
00:00	68.9	68.9	68.9	67	57.5	0	2	338	0.00	29.665 
00:05	68.8	68.8	68.8	67	57.4	1	4	248	0.00	29.665 
00:10	68.6	68.6	68.6	68	57.6	0	2	270	0.00	29.665 
00:15	68.6	68.6	68.6	68	57.6	0	2	270	0.00	29.665 
00:20	68.4	68.4	68.4	69	57.8	0	3	270	0.00	29.665 
00:25	68.3	68.3	68.3	69	57.7	0	3	315	0.00	29.665 
00:30	68.1	68.1	68.1	70	57.9	0	1	315	0.00	29.664 
00:35	67.9	67.9	67.9	70	57.7	0	3	270	0.00	29.664 
00:40	67.8	67.8	67.8	71	58.0	0	2	270	0.00	29.664 
00:45	67.6	67.6	67.6	72	58.2	0	1	270	0.00	29.659 
00:50	67.4	67.4	67.4	72	58.1	0	2	270	0.00	29.659 
00:55	67.3	67.3	67.3	73	58.3	0	0	---	0.00	29.659 
01:00	66.9	66.9	66.9	74	58.3	0	0	---	0.00	29.660 
01:05	66.8	66.8	66.8	75	58.6	0	0	---	0.00	29.660 
01:10	66.4	66.4	66.4	76	58.6	0	1	270	0.00	29.660 
01:15	66.4	66.4	66.4	77	59.0	0	0	---	0.00	29.658 
01:20	66.4	66.4	66.4	77	59.0	0	1	270	0.00	29.658 
01:25	66.4	66.4	66.4	77	59.0	0	2	270	0.00	29.658 
01:30	66.6	66.6	66.6	78	59.5	0	1	270	0.00	29.655 
01:35	66.6	66.6	66.6	78	59.5	0	1	270	0.00	29.655 
01:40	66.6	66.6	66.6	78	59.5	0	2	315	0.00	29.655 
01:45	66.6	66.6	66.6	77	59.2	0	2	315	0.00	29.651 
01:50	66.8	66.8	66.8	77	59.3	0	2	315	0.00	29.651 
01:55	66.8	66.8	66.8	77	59.3	0	1	315	0.00	29.651 
02:00	66.9	66.9	66.9	76	59.1	0	2	315	0.00	29.651 
02:05	67.1	67.1	67.1	76	59.3	0	2	315	0.00	29.651 
02:10	67.1	67.1	67.1	75	58.9	0	2	315	0.00	29.651 
02:15	67.1	67.1	67.1	75	58.9	0	1	315	0.00	29.645 
02:20	67.3	67.3	67.3	75	59.1	0	1	315	0.00	29.645 
02:25	67.3	67.3	67.3	75	59.1	0	1	315	0.00	29.645 
02:30	67.1	67.1	67.1	75	58.9	0	1	315	0.00	29.641 
02:35	67.1	67.1	67.1	76	59.3	0	1	315	0.00	29.641 
02:40	67.1	67.1	67.1	76	59.3	0	1	315	0.00	29.641 
02:45	66.9	66.9	66.9	76	59.1	0	2	315	0.00	29.636 
02:50	66.9	66.9	66.9	76	59.1	0	4	315	0.00	29.636 
02:55	66.9	66.9	66.9	77	59.4	0	2	338	0.00	29.636 
03:00	66.9	66.9	66.9	77	59.4	0	1	338	0.00	29.636 
03:05	66.8	66.8	66.8	77	59.3	0	1	338	0.00	29.636 
03:10	66.8	66.8	66.8	77	59.3	0	1	338	0.00	29.636 
03:15	66.8	66.8	66.8	77	59.3	0	0	---	0.00	29.636 
03:20	66.8	66.8	66.8	77	59.3	0	1	338	0.00	29.636 
03:25	66.8	66.8	66.8	77	59.3	0	1	338	0.00	29.636 
03:30	66.8	66.8	66.8	78	59.7	0	0	---	0.00	29.634 
03:35	66.8	66.8	66.8	78	59.7	0	2	248	0.00	29.634 
03:40	66.8	66.8	66.8	78	59.7	0	1	248	0.00	29.634 
03:45	66.8	66.8	66.8	78	59.7	0	0	---	0.00	29.632 
03:50	66.6	66.6	66.6	78	59.5	0	2	248	0.00	29.632 
03:55	66.6	66.6	66.6	78	59.5	0	0	---	0.00	29.632 
04:00	66.4	66.4	66.4	78	59.3	0	0	---	0.00	29.631 
04:05	66.4	66.4	66.4	79	59.7	0	1	248	0.00	29.631 
04:10	66.4	66.4	66.4	79	59.7	0	0	---	0.00	29.631 
04:15	66.4	66.4	66.4	79	59.7	0	2	248	0.00	29.624 
04:20	66.6	66.6	66.6	79	59.9	0	2	248	0.00	29.624 
04:25	66.6	66.6	66.6	79	59.9	0	2	248	0.00	29.624 
04:30	66.6	66.6	66.6	78	59.5	0	3	90	0.00	29.619 
04:35	66.6	66.6	66.6	77	59.2	1	4	248	0.00	29.619 
04:40	66.9	66.9	66.9	77	59.4	0	1	248	0.00	29.619 
04:45	66.9	66.9	66.9	77	59.4	0	2	248	0.00	29.618 
04:50	67.1	67.1	67.1	77	59.6	0	1	248	0.00	29.618 
04:55	67.1	67.1	67.1	76	59.3	0	2	248	0.00	29.618 
05:00	66.9	66.9	66.9	76	59.1	0	1	248	0.00	29.618 
05:05	66.9	66.9	66.9	76	59.1	0	3	270	0.00	29.618 
05:10	67.1	67.1	67.1	76	59.3	0	2	270	0.00	29.618 
05:15	67.1	67.1	67.1	75	58.9	0	2	270	0.00	29.617 
05:20	67.1	67.1	67.1	75	58.9	0	2	248	0.00	29.617 
05:25	67.1	67.1	67.1	74	58.5	0	2	248	0.00	29.617 
05:30	67.1	67.1	67.1	74	58.5	0	3	248	0.00	29.617 
05:35	67.1	67.1	67.1	74	58.5	0	1	248	0.00	29.617 
05:40	67.1	67.1	67.1	73	58.1	0	2	338	0.00	29.617 
05:45	67.1	67.1	67.1	74	58.5	0	1	338	0.00	29.617 
05:50	67.1	67.1	67.1	73	58.1	0	3	338	0.00	29.617 
05:55	67.3	67.3	67.3	74	58.7	0	1	338	0.00	29.617 
06:00	67.3	67.3	67.3	74	58.7	0	1	338	0.00	29.617 
06:05	67.1	67.1	67.1	74	58.5	0	2	338	0.00	29.617 
06:10	67.1	67.1	67.1	74	58.5	0	2	248	0.00	29.617 
06:15	67.1	67.1	67.1	74	58.5	0	1	248	0.00	29.619 
06:20	67.1	67.1	67.1	74	58.5	0	2	292	0.00	29.619 
06:25	67.3	67.3	67.3	74	58.7	0	2	225	0.00	29.619 
06:30	67.3	67.3	67.3	74	58.7	0	1	225	0.00	29.614 
06:35	67.3	67.3	67.3	73	58.3	0	2	225	0.00	29.614 
06:40	67.3	67.3	67.3	73	58.3	0	3	338	0.00	29.614 
06:45	67.3	67.3	67.3	73	58.3	0	3	270	0.00	29.615 
06:50	67.3	67.3	67.3	73	58.3	0	2	270	0.00	29.615 
06:55	67.3	67.3	67.3	73	58.3	0	2	270	0.00	29.615 
07:00	67.3	67.3	67.3	73	58.3	0	2	270	0.00	29.615 
07:05	67.3	67.3	67.3	73	58.3	0	3	270	0.00	29.615 
07:10	67.3	67.3	67.3	73	58.3	0	2	270	0.00	29.615 
07:15	67.3	67.3	67.3	73	58.3	0	3	270	0.00	29.614 
07:20	67.3	67.3	67.3	73	58.3	1	4	270	0.00	29.614 
07:25	67.3	67.3	67.3	74	58.7	0	1	270	0.00	29.614 
07:30	67.3	67.3	67.3	74	58.7	0	2	225	0.00	29.615 
07:35	67.1	67.1	67.1	75	58.9	2	5	90	0.00	29.615 
07:40	66.9	66.9	66.9	75	58.7	0	4	248	0.00	29.615 
07:45	66.9	66.9	66.9	76	59.1	0	2	248	0.00	29.609 
07:50	66.8	66.8	66.8	77	59.3	0	2	248	0.00	29.609 
07:55	66.8	66.8	66.8	77	59.3	0	2	248	0.00	29.609 
08:00	66.8	66.8	66.8	77	59.3	0	2	248	0.00	29.607 
08:05	66.9	66.9	66.9	77	59.4	0	1	248	0.00	29.607 
08:10	66.9	66.9	66.9	77	59.4	0	2	338	0.00	29.607 
08:15	66.9	66.9	66.9	77	59.4	0	3	248	0.00	29.610 
08:20	67.1	67.1	67.1	77	59.6	1	4	292	0.00	29.610 
08:25	67.1	67.1	67.1	77	59.6	2	6	248	0.00	29.610 
08:30	66.9	66.9	66.9	78	59.8	1	5	270	0.00	29.608 
08:35	67.1	67.1	67.1	78	60.0	1	4	90	0.00	29.608 
08:40	67.1	67.1	67.1	78	60.0	1	2	292	0.00	29.608 
08:45	67.1	67.1	67.1	78	60.0	0	2	292	0.00	29.610 
08:50	67.1	67.1	67.1	78	60.0	1	6	248	0.00	29.610 
08:55	67.3	67.3	67.3	78	60.2	1	2	248	0.00	29.610 
09:00	67.4	67.4	67.4	77	59.9	1	4	248	0.00	29.610 
09:05	67.6	67.6	67.6	76	59.8	1	3	248	0.00	29.610 
09:10	67.8	67.8	67.8	76	59.9	0	2	248	0.00	29.610 
09:15	67.8	67.8	67.8	76	59.9	2	9	248	0.00	29.612 
09:20	67.6	67.6	67.6	76	59.8	2	6	270	0.00	29.612 
09:25	67.6	67.6	67.6	76	59.8	2	5	270	0.00	29.612 
09:30	67.6	67.6	67.6	77	60.1	3	6	270	0.00	29.618 
09:35	67.4	67.4	67.4	77	59.9	3	7	270	0.00	29.618 
09:40	67.6	67.6	67.6	77	60.1	3	7	270	0.00	29.618 
09:45	67.4	67.4	67.4	77	59.9	2	4	270	0.00	29.625 
09:50	67.3	67.3	67.3	78	60.2	2	6	270	0.00	29.625 
09:55	67.3	67.3	67.3	78	60.2	2	9	270	0.00	29.625 
10:00	67.6	67.6	67.6	78	60.5	2	5	90	0.00	29.623 
10:05	67.8	67.8	67.8	78	60.7	2	6	270	0.00	29.623 
10:10	67.9	67.9	67.9	77	60.4	2	6	270	0.00	29.623 
10:15	67.9	67.9	67.9	77	60.4	2	5	270	0.00	29.624 
10:20	67.9	67.9	67.9	77	60.4	3	6	292	0.00	29.624 
10:25	68.1	68.1	68.1	77	60.6	2	5	292	0.00	29.624 
10:30	68.1	68.1	68.1	77	60.6	2	5	270	0.00	29.624 
10:35	68.3	68.3	68.3	77	60.8	2	4	270	0.00	29.624 
10:40	68.3	68.3	68.3	77	60.8	2	5	270	0.00	29.624 
10:45	68.3	68.3	68.3	77	60.8	2	6	270	0.00	29.624 
10:50	68.3	68.3	68.3	77	60.8	1	5	270	0.00	29.624 
10:55	68.3	68.3	68.3	77	60.8	1	5	270	0.00	29.624 
11:00	68.1	68.1	68.1	77	60.6	3	6	270	0.00	29.624 
11:05	68.3	68.3	68.3	78	61.2	1	4	270	0.00	29.624 
11:10	68.4	68.4	68.4	78	61.3	2	6	248	0.00	29.624 
11:15	68.4	68.4	68.4	77	60.9	2	9	270	0.00	29.626 
11:20	68.3	68.3	68.3	77	60.8	3	7	292	0.00	29.626 
11:25	68.3	68.3	68.3	78	61.2	2	6	270	0.00	29.626 
11:30	68.3	68.3	68.3	78	61.2	2	9	270	0.00	29.626 
11:35	68.3	68.3	68.3	78	61.2	3	6	270	0.00	29.626 
11:40	67.9	67.9	67.9	79	61.1	2	7	270	0.00	29.626 
11:45	67.9	67.9	67.9	80	61.5	2	7	270	0.00	29.630 
11:50	68.1	68.1	68.1	80	61.7	2	7	270	0.00	29.630 
11:55	68.1	68.1	68.1	81	62.0	1	6	315	0.00	29.630 
12:00	67.9	67.9	67.9	82	62.2	2	5	248	0.00	29.632 
12:05	67.6	67.6	67.6	84	62.6	2	5	270	0.00	29.632 
12:10	67.3	67.3	67.3	86	63.0	1	4	292	0.00	29.632 
12:15	66.9	66.9	66.9	88	63.2	1	4	292	0.00	29.639 
12:20	66.8	66.8	66.8	88	63.1	1	3	292	0.00	29.639 
12:25	66.6	66.6	66.6	89	63.3	1	4	292	0.00	29.639 
12:30	66.8	66.8	66.8	90	63.8	2	6	248	0.00	29.636 
12:35	66.9	66.9	66.9	90	63.9	1	5	270	0.00	29.636 
12:40	66.9	66.9	66.9	89	63.5	2	9	270	0.00	29.636 
12:45	67.1	67.1	67.1	89	63.7	1	3	248	0.00	29.634 
12:50	67.3	67.3	67.3	89	63.9	1	4	248	0.00	29.634 
12:55	67.3	67.3	67.3	88	63.6	1	3	270	0.00	29.634 
13:00	67.3	67.3	67.3	88	63.6	2	6	270	0.00	29.629 
13:05	67.4	67.4	67.4	88	63.7	1	4	270	0.00	29.629 
13:10	67.9	67.9	67.9	88	64.2	0	2	270	0.00	29.629 
13:15	68.3	68.3	68.3	86	63.9	1	4	270	0.00	29.628 
13:20	68.4	68.4	68.4	85	63.7	1	4	270	0.00	29.628 
13:25	68.4	68.4	68.4	84	63.4	2	6	270	0.00	29.628 
13:30	68.6	68.6	68.6	83	63.2	2	5	270	0.00	29.629 
13:35	69.3	69.3	69.3	84	64.2	2	6	270	0.00	29.629 
13:40	70.1	70.1	70.1	81	64.0	1	4	292	0.00	29.629 
13:45	70.4	70.4	70.4	78	63.2	2	7	292	0.00	29.625 
13:50	70.6	70.6	70.6	77	63.0	3	6	270	0.00	29.625 
13:55	70.8	70.8	70.8	77	63.2	2	7	248	0.00	29.625 
14:00	70.8	70.8	70.8	76	62.8	3	6	248	0.00	29.623 
14:05	70.8	70.8	70.8	79	64.0	3	7	248	0.00	29.623 
14:10	70.6	70.6	70.6	75	62.3	3	6	270	0.00	29.623 
14:15	70.6	70.6	70.6	76	62.7	2	6	248	0.00	29.624 
14:20	70.8	70.8	70.8	76	62.8	2	5	270	0.00	29.624 
14:25	70.9	70.9	70.9	76	62.9	2	6	270	0.00	29.624 
14:30	71.1	71.1	71.1	75	62.8	2	5	270	0.00	29.625 
14:35	71.1	71.1	71.1	74	62.4	2	5	270	0.00	29.625 
14:40	70.8	70.8	70.8	74	62.1	2	4	248	0.00	29.625 
14:45	70.9	70.9	70.9	76	62.9	1	3	248	0.00	29.626 
14:50	70.9	70.9	70.9	75	62.6	2	5	270	0.00	29.626 
14:55	70.9	70.9	70.9	74	62.2	3	6	270	0.00	29.626 
15:00	71.3	71.3	71.3	74	62.6	3	6	270	0.00	29.627 
15:05	71.5	71.5	71.5	73	62.4	3	6	270	0.00	29.627 
15:10	71.6	71.6	71.6	72	62.1	3	7	292	0.00	29.627 
15:15	71.8	71.8	71.8	71	61.9	4	7	270	0.00	29.626 
15:20	72.0	72.0	72.0	71	62.1	3	7	270	0.00	29.626 
15:25	72.1	72.1	72.1	70	61.8	3	5	248	0.00	29.626 
15:30	72.0	72.0	72.0	71	62.1	4	7	270	0.00	29.626 
15:35	72.1	72.1	72.1	71	62.2	3	6	270	0.00	29.626 
15:40	72.3	72.3	72.3	71	62.4	3	6	292	0.00	29.626 
15:45	72.1	72.1	72.1	70	61.8	2	6	270	0.00	29.625 
15:50	71.6	71.6	71.6	70	61.3	4	11	270	0.00	29.625 
15:55	71.5	71.5	71.5	72	62.0	3	6	270	0.00	29.625 
16:00	71.5	71.5	71.5	72	62.0	2	5	270	0.00	29.626 
16:05	71.5	71.5	71.5	73	62.4	3	7	270	0.00	29.626 
16:10	71.6	71.6	71.6	73	62.5	3	7	270	0.00	29.626 
16:15	72.0	72.0	72.0	73	62.9	2	6	270	0.00	29.626 
16:20	72.7	72.7	72.7	72	63.1	3	6	270	0.00	29.626 
16:25	72.5	72.5	72.5	70	62.1	4	10	270	0.00	29.626 
16:30	72.1	72.1	72.1	71	62.2	3	7	270	0.00	29.623 
16:35	72.0	72.0	72.0	72	62.5	2	5	270	0.00	29.623 
16:40	72.1	72.1	72.1	72	62.6	2	5	270	0.00	29.623 
16:45	72.0	72.0	72.0	72	62.5	3	7	292	0.00	29.622 
16:50	72.0	72.0	72.0	73	62.9	2	6	270	0.00	29.622 
16:55	71.8	71.8	71.8	72	62.3	2	6	270	0.00	29.622 
17:00	71.6	71.6	71.6	71	61.7	3	7	270	0.00	29.623 
17:05	71.6	71.6	71.6	71	61.7	4	8	270	0.00	29.623 
17:10	71.6	71.6	71.6	73	62.5	2	4	248	0.00	29.623 
17:15	71.1	71.1	71.1	76	63.1	2	4	248	0.00	29.625 
17:20	70.9	70.9	70.9	77	63.3	2	4	248	0.00	29.625 
17:25	71.3	71.3	71.3	76	63.3	2	5	248	0.00	29.625 
17:30	71.5	71.5	71.5	73	62.4	3	6	270	0.00	29.625 
17:35	71.5	71.5	71.5	73	62.4	2	5	270	0.00	29.625 
17:40	71.3	71.3	71.3	73	62.2	2	5	292	0.00	29.625 
17:45	71.1	71.1	71.1	73	62.0	3	7	248	0.00	29.627 
17:50	70.6	70.6	70.6	74	61.9	4	7	270	0.00	29.627 
17:55	70.6	70.6	70.6	75	62.3	3	5	248	0.00	29.627 
18:00	70.6	70.6	70.6	76	62.7	2	6	248	0.00	29.626 
18:05	70.8	70.8	70.8	76	62.8	1	6	270	0.00	29.626 
18:10	70.4	70.4	70.4	75	62.1	3	6	292	0.00	29.626 
18:15	70.4	70.4	70.4	75	62.1	2	5	270	0.00	29.629 
18:20	70.3	70.3	70.3	75	62.0	3	6	270	0.00	29.629 
18:25	69.9	69.9	69.9	75	61.6	4	7	270	0.00	29.629 
18:30	69.8	69.8	69.8	77	62.3	2	4	270	0.00	29.628 
18:35	69.8	69.8	69.8	76	61.9	2	4	270	0.00	29.628 
18:40	69.8	69.8	69.8	76	61.9	3	7	270	0.00	29.628 
18:45	69.6	69.6	69.6	76	61.7	2	7	270	0.00	29.629 
18:50	69.6	69.6	69.6	76	61.7	1	6	270	0.00	29.629 
18:55	69.6	69.6	69.6	76	61.7	2	7	270	0.00	29.629 
19:00	69.4	69.4	69.4	76	61.5	2	5	270	0.00	29.630 
19:05	69.4	69.4	69.4	76	61.5	3	6	270	0.00	29.630 
19:10	69.4	69.4	69.4	76	61.5	3	6	292	0.00	29.630 
19:15	69.3	69.3	69.3	76	61.4	2	5	270	0.00	29.628 
19:20	69.4	69.4	69.4	76	61.5	2	4	270	0.00	29.628 
19:25	69.3	69.3	69.3	76	61.4	3	7	270	0.00	29.628 
19:30	69.1	69.1	69.1	76	61.2	2	6	248	0.00	29.631 
19:35	68.9	68.9	68.9	76	61.0	3	5	270	0.00	29.631 
19:40	68.9	68.9	68.9	76	61.0	2	5	292	0.00	29.631 
19:45	68.9	68.9	68.9	77	61.4	2	5	292	0.00	29.632 
19:50	68.8	68.8	68.8	77	61.3	2	7	270	0.00	29.632 
19:55	68.3	68.3	68.3	81	62.2	3	6	270	0.02	29.632 
20:00	67.3	67.3	67.3	84	62.3	1	3	270	0.01	29.638 
20:05	66.4	66.4	66.4	86	62.1	2	5	270	0.00	29.638 
20:10	66.1	66.1	66.1	88	62.4	0	3	270	0.00	29.638 
20:15	66.0	66.0	66.0	89	62.7	0	3	270	0.00	29.641 
20:20	65.8	65.8	65.8	90	62.8	1	2	270	0.00	29.641 
20:25	65.6	65.6	65.6	90	62.6	1	3	315	0.00	29.641 
20:30	65.6	65.6	65.6	91	62.9	0	2	315	0.00	29.642 
20:35	65.6	65.6	65.6	91	62.9	0	1	315	0.00	29.642 
20:40	65.6	65.6	65.6	91	62.9	1	2	315	0.00	29.642 
20:45	65.5	65.5	65.5	91	62.8	0	1	315	0.00	29.639 
20:50	65.5	65.5	65.5	92	63.1	0	1	315	0.00	29.639 
20:55	65.5	65.5	65.5	92	63.1	0	1	315	0.00	29.639 
21:00	65.5	65.5	65.5	91	62.8	1	3	315	0.00	29.637 
21:05	65.3	65.3	65.3	91	62.6	0	2	315	0.00	29.637 
21:10	65.3	65.3	65.3	91	62.6	0	1	315	0.00	29.637 
21:15	65.2	65.2	65.2	91	62.5	1	3	315	0.00	29.634 
21:20	65.2	65.2	65.2	90	62.2	1	3	270	0.00	29.634 
21:25	65.2	65.2	65.2	90	62.2	1	3	270	0.00	29.634 
21:30	65.2	65.2	65.2	89	61.9	1	3	315	0.00	29.633 
21:35	65.2	65.2	65.2	89	61.9	0	2	315	0.00	29.633 
21:40	65.2	65.2	65.2	89	61.9	0	2	315	0.00	29.633 
21:45	65.2	65.2	65.2	90	62.2	0	2	315	0.00	29.635 
21:50	65.0	65.0	65.0	90	62.0	0	2	315	0.00	29.635 
21:55	65.0	65.0	65.0	89	61.7	1	4	315	0.00	29.635 
22:00	64.8	64.8	64.8	89	61.5	1	3	315	0.00	29.637 
22:05	64.7	64.7	64.7	89	61.4	1	5	270	0.00	29.637 
22:10	64.5	64.5	64.5	89	61.2	1	3	270	0.00	29.637 
22:15	64.3	64.3	64.3	89	61.0	1	4	270	0.00	29.643 
22:20	64.3	64.3	64.3	89	61.0	1	4	270	0.00	29.643 
22:25	64.2	64.2	64.2	89	60.9	1	3	270	0.00	29.643 
22:30	64.2	64.2	64.2	89	60.9	1	2	270	0.00	29.646 
22:35	64.0	64.0	64.0	89	60.7	1	3	270	0.00	29.646 
22:40	64.0	64.0	64.0	88	60.4	2	5	270	0.00	29.646 
22:45	64.0	64.0	64.0	88	60.4	1	4	270	0.00	29.646 
22:50	64.0	64.0	64.0	88	60.4	0	2	270	0.00	29.646 
22:55	64.0	64.0	64.0	88	60.4	0	1	270	0.00	29.646 
23:00	64.0	64.0	64.0	88	60.4	0	1	270	0.00	29.647 
23:05	64.0	64.0	64.0	88	60.4	0	2	270	0.00	29.647 
23:10	64.0	64.0	64.0	89	60.7	0	2	270	0.00	29.647 
23:15	63.9	63.9	63.9	89	60.6	0	2	270	0.00	29.645 
23:20	63.9	63.9	63.9	89	60.6	0	2	270	0.00	29.645 
23:25	63.9	63.9	63.9	89	60.6	0	1	270	0.00	29.645 
23:30	63.9	63.9	63.9	89	60.6	0	1	270	0.00	29.645 
23:35	63.9	63.9	63.9	89	60.6	0	1	270	0.00	29.645 
23:40	63.9	63.9	63.9	89	60.6	0	1	270	0.00	29.645 
23:45	63.9	63.9	63.9	89	60.6	0	4	270	0.00	29.643 
23:50	63.9	63.9	63.9	88	60.3	1	3	270	0.00	29.643 
23:55	63.7	63.7	63.7	88	60.1	0	2	270	0.00	29.643 

CoCoRaHS
IN-AL-39
A2 Web Hosting
Creative Commons License
GoDaddy
search engine by freefind advanced

loaded 2018-11-14 00:10:13 • last modified 2010-11-18 10:43:29
Privacy PolicyDisclaimer
• wx.awcolley.com is powered by PmWiki v.2002016 •
• all content (unless otherwise noted) © 2018 A W Colley